sensor_id;sensor_type;location;lat;lon;timestamp;P1;durP1;ratioP1;P2;durP2;ratioP2
58015;SDS011;43809;52.110;20.964;2022-12-18T00:00:18;55.33;;;28.02;;
58015;SDS011;43809;52.110;20.964;2022-12-18T00:02:18;43.05;;;20.80;;
58015;SDS011;43809;52.110;20.964;2022-12-18T00:04:22;44.53;;;20.98;;
58015;SDS011;43809;52.110;20.964;2022-12-18T00:06:24;45.25;;;21.85;;
58015;SDS011;43809;52.110;20.964;2022-12-18T00:08:24;44.42;;;21.73;;
58015;SDS011;43809;52.110;20.964;2022-12-18T00:10:24;66.18;;;36.65;;
58015;SDS011;43809;52.110;20.964;2022-12-18T00:12:24;54.47;;;28.40;;
58015;SDS011;43809;52.110;20.964;2022-12-18T00:14:24;54.40;;;27.65;;
58015;SDS011;43809;52.110;20.964;2022-12-18T00:16:25;53.22;;;24.63;;
58015;SDS011;43809;52.110;20.964;2022-12-18T00:18:26;69.85;;;32.15;;
58015;SDS011;43809;52.110;20.964;2022-12-18T00:20:26;59.85;;;29.13;;
58015;SDS011;43809;52.110;20.964;2022-12-18T00:22:28;47.70;;;21.50;;
58015;SDS011;43809;52.110;20.964;2022-12-18T00:24:28;49.73;;;24.13;;
58015;SDS011;43809;52.110;20.964;2022-12-18T00:26:29;43.45;;;20.55;;
58015;SDS011;43809;52.110;20.964;2022-12-18T00:28:30;43.13;;;20.10;;
58015;SDS011;43809;52.110;20.964;2022-12-18T00:30:31;49.85;;;24.27;;
58015;SDS011;43809;52.110;20.964;2022-12-18T00:32:32;53.88;;;23.38;;
58015;SDS011;43809;52.110;20.964;2022-12-18T00:34:32;39.78;;;20.23;;
58015;SDS011;43809;52.110;20.964;2022-12-18T00:36:33;50.73;;;24.87;;
58015;SDS011;43809;52.110;20.964;2022-12-18T00:38:34;43.80;;;20.20;;
58015;SDS011;43809;52.110;20.964;2022-12-18T00:40:34;41.03;;;19.48;;
58015;SDS011;43809;52.110;20.964;2022-12-18T00:42:34;39.85;;;17.27;;
58015;SDS011;43809;52.110;20.964;2022-12-18T00:44:53;36.80;;;17.95;;
58015;SDS011;43809;52.110;20.964;2022-12-18T00:46:53;37.10;;;18.00;;
58015;SDS011;43809;52.110;20.964;2022-12-18T00:48:53;43.50;;;18.15;;
58015;SDS011;43809;52.110;20.964;2022-12-18T00:50:53;37.40;;;18.48;;
58015;SDS011;43809;52.110;20.964;2022-12-18T00:52:54;34.45;;;16.98;;
58015;SDS011;43809;52.110;20.964;2022-12-18T00:54:57;39.88;;;19.52;;
58015;SDS011;43809;52.110;20.964;2022-12-18T00:56:57;38.50;;;17.35;;
58015;SDS011;43809;52.110;20.964;2022-12-18T00:58:57;42.85;;;18.67;;
58015;SDS011;43809;52.110;20.964;2022-12-18T01:00:57;43.70;;;17.77;;
58015;SDS011;43809;52.110;20.964;2022-12-18T01:02:57;39.58;;;18.67;;
58015;SDS011;43809;52.110;20.964;2022-12-18T01:04:58;36.10;;;17.15;;
58015;SDS011;43809;52.110;20.964;2022-12-18T01:06:58;44.22;;;20.25;;
58015;SDS011;43809;52.110;20.964;2022-12-18T01:08:58;38.50;;;18.08;;
58015;SDS011;43809;52.110;20.964;2022-12-18T01:10:58;44.65;;;21.55;;
58015;SDS011;43809;52.110;20.964;2022-12-18T01:12:58;42.25;;;18.65;;
58015;SDS011;43809;52.110;20.964;2022-12-18T01:14:59;41.13;;;18.37;;
58015;SDS011;43809;52.110;20.964;2022-12-18T01:16:59;46.20;;;18.98;;
58015;SDS011;43809;52.110;20.964;2022-12-18T01:18:59;41.63;;;17.88;;
58015;SDS011;43809;52.110;20.964;2022-12-18T01:20:59;41.13;;;17.92;;
58015;SDS011;43809;52.110;20.964;2022-12-18T01:22:59;38.97;;;17.13;;
58015;SDS011;43809;52.110;20.964;2022-12-18T01:25:00;46.00;;;18.88;;
58015;SDS011;43809;52.110;20.964;2022-12-18T01:27:00;38.67;;;18.52;;
58015;SDS011;43809;52.110;20.964;2022-12-18T01:29:00;37.23;;;15.90;;
58015;SDS011;43809;52.110;20.964;2022-12-18T01:33:13;40.22;;;17.08;;
58015;SDS011;43809;52.110;20.964;2022-12-18T01:35:13;37.60;;;16.60;;
58015;SDS011;43809;52.110;20.964;2022-12-18T01:37:13;36.47;;;15.95;;
58015;SDS011;43809;52.110;20.964;2022-12-18T01:39:14;44.30;;;17.92;;
58015;SDS011;43809;52.110;20.964;2022-12-18T01:41:15;40.55;;;18.60;;
58015;SDS011;43809;52.110;20.964;2022-12-18T01:43:16;42.03;;;18.02;;
58015;SDS011;43809;52.110;20.964;2022-12-18T01:47:20;37.20;;;15.80;;
58015;SDS011;43809;52.110;20.964;2022-12-18T01:49:22;39.00;;;15.95;;
58015;SDS011;43809;52.110;20.964;2022-12-18T01:51:22;37.83;;;15.25;;
58015;SDS011;43809;52.110;20.964;2022-12-18T01:53:22;39.17;;;16.00;;
58015;SDS011;43809;52.110;20.964;2022-12-18T01:55:24;37.40;;;16.40;;
58015;SDS011;43809;52.110;20.964;2022-12-18T01:57:25;40.05;;;16.27;;
58015;SDS011;43809;52.110;20.964;2022-12-18T01:59:26;36.83;;;15.55;;
58015;SDS011;43809;52.110;20.964;2022-12-18T02:01:27;37.65;;;16.30;;
58015;SDS011;43809;52.110;20.964;2022-12-18T02:03:28;32.17;;;14.95;;
58015;SDS011;43809;52.110;20.964;2022-12-18T02:07:37;34.55;;;15.75;;
58015;SDS011;43809;52.110;20.964;2022-12-18T02:09:48;37.08;;;15.18;;
58015;SDS011;43809;52.110;20.964;2022-12-18T02:18:18;39.83;;;17.05;;
58015;SDS011;43809;52.110;20.964;2022-12-18T02:22:34;35.53;;;15.88;;
58015;SDS011;43809;52.110;20.964;2022-12-18T02:26:49;40.03;;;16.48;;
58015;SDS011;43809;52.110;20.964;2022-12-18T02:28:54;41.33;;;16.73;;
58015;SDS011;43809;52.110;20.964;2022-12-18T02:30:56;32.60;;;14.95;;
58015;SDS011;43809;52.110;20.964;2022-12-18T02:32:57;37.37;;;15.47;;
58015;SDS011;43809;52.110;20.964;2022-12-18T02:34:57;40.42;;;16.45;;
58015;SDS011;43809;52.110;20.964;2022-12-18T02:36:58;37.13;;;15.30;;
58015;SDS011;43809;52.110;20.964;2022-12-18T02:39:00;34.57;;;14.97;;
58015;SDS011;43809;52.110;20.964;2022-12-18T02:41:01;36.92;;;15.18;;
58015;SDS011;43809;52.110;20.964;2022-12-18T02:43:03;37.15;;;15.85;;
58015;SDS011;43809;52.110;20.964;2022-12-18T02:45:03;37.97;;;16.45;;
58015;SDS011;43809;52.110;20.964;2022-12-18T02:47:03;35.67;;;14.52;;
58015;SDS011;43809;52.110;20.964;2022-12-18T02:49:53;31.58;;;13.48;;
58015;SDS011;43809;52.110;20.964;2022-12-18T02:51:27;33.70;;;14.25;;
58015;SDS011;43809;52.110;20.964;2022-12-18T02:53:33;41.15;;;16.25;;
58015;SDS011;43809;52.110;20.964;2022-12-18T02:55:43;34.63;;;15.15;;
58015;SDS011;43809;52.110;20.964;2022-12-18T02:57:55;41.58;;;16.23;;
58015;SDS011;43809;52.110;20.964;2022-12-18T03:00:02;33.78;;;14.55;;
58015;SDS011;43809;52.110;20.964;2022-12-18T03:02:22;40.35;;;16.17;;
58015;SDS011;43809;52.110;20.964;2022-12-18T03:04:30;36.33;;;14.68;;
58015;SDS011;43809;52.110;20.964;2022-12-18T03:06:35;42.00;;;17.67;;
58015;SDS011;43809;52.110;20.964;2022-12-18T03:08:38;39.22;;;16.75;;
58015;SDS011;43809;52.110;20.964;2022-12-18T03:10:40;43.35;;;16.10;;
58015;SDS011;43809;52.110;20.964;2022-12-18T03:12:43;43.03;;;16.77;;
58015;SDS011;43809;52.110;20.964;2022-12-18T03:14:44;37.70;;;15.88;;
58015;SDS011;43809;52.110;20.964;2022-12-18T03:16:45;33.40;;;14.98;;
58015;SDS011;43809;52.110;20.964;2022-12-18T03:20:47;36.70;;;16.05;;
58015;SDS011;43809;52.110;20.964;2022-12-18T03:22:51;34.90;;;15.73;;
58015;SDS011;43809;52.110;20.964;2022-12-18T03:24:53;41.00;;;15.90;;
58015;SDS011;43809;52.110;20.964;2022-12-18T03:26:57;43.17;;;17.40;;
58015;SDS011;43809;52.110;20.964;2022-12-18T03:29:00;40.65;;;17.73;;
58015;SDS011;43809;52.110;20.964;2022-12-18T03:31:01;43.80;;;17.30;;
58015;SDS011;43809;52.110;20.964;2022-12-18T03:33:08;42.50;;;17.63;;
58015;SDS011;43809;52.110;20.964;2022-12-18T03:35:09;40.45;;;17.40;;
58015;SDS011;43809;52.110;20.964;2022-12-18T03:37:11;39.22;;;16.92;;
58015;SDS011;43809;52.110;20.964;2022-12-18T03:39:12;38.63;;;16.88;;
58015;SDS011;43809;52.110;20.964;2022-12-18T03:47:33;42.53;;;16.67;;
58015;SDS011;43809;52.110;20.964;2022-12-18T03:49:39;42.42;;;16.27;;
58015;SDS011;43809;52.110;20.964;2022-12-18T03:51:46;39.03;;;16.92;;
58015;SDS011;43809;52.110;20.964;2022-12-18T03:53:53;37.17;;;16.02;;
58015;SDS011;43809;52.110;20.964;2022-12-18T03:55:55;39.42;;;15.15;;
58015;SDS011;43809;52.110;20.964;2022-12-18T03:57:57;40.67;;;15.97;;
58015;SDS011;43809;52.110;20.964;2022-12-18T04:00:04;33.22;;;15.82;;
58015;SDS011;43809;52.110;20.964;2022-12-18T04:02:05;39.05;;;16.73;;
58015;SDS011;43809;52.110;20.964;2022-12-18T04:04:06;39.03;;;16.57;;
58015;SDS011;43809;52.110;20.964;2022-12-18T04:06:08;40.10;;;16.02;;
58015;SDS011;43809;52.110;20.964;2022-12-18T04:08:09;41.60;;;17.42;;
58015;SDS011;43809;52.110;20.964;2022-12-18T04:10:10;42.63;;;17.02;;
58015;SDS011;43809;52.110;20.964;2022-12-18T04:12:10;37.13;;;16.08;;
58015;SDS011;43809;52.110;20.964;2022-12-18T04:14:10;42.85;;;16.77;;
58015;SDS011;43809;52.110;20.964;2022-12-18T04:16:11;36.17;;;17.08;;
58015;SDS011;43809;52.110;20.964;2022-12-18T04:18:11;42.55;;;16.40;;
58015;SDS011;43809;52.110;20.964;2022-12-18T04:20:11;39.57;;;16.13;;
58015;SDS011;43809;52.110;20.964;2022-12-18T04:22:11;38.85;;;15.40;;
58015;SDS011;43809;52.110;20.964;2022-12-18T04:24:11;38.15;;;16.10;;
58015;SDS011;43809;52.110;20.964;2022-12-18T04:26:11;40.90;;;17.02;;
58015;SDS011;43809;52.110;20.964;2022-12-18T04:28:11;41.88;;;16.17;;
58015;SDS011;43809;52.110;20.964;2022-12-18T04:30:12;41.22;;;16.30;;
58015;SDS011;43809;52.110;20.964;2022-12-18T04:32:12;44.17;;;16.52;;
58015;SDS011;43809;52.110;20.964;2022-12-18T04:34:12;38.28;;;16.50;;
58015;SDS011;43809;52.110;20.964;2022-12-18T04:36:12;40.10;;;15.63;;
58015;SDS011;43809;52.110;20.964;2022-12-18T04:38:13;38.92;;;16.02;;
58015;SDS011;43809;52.110;20.964;2022-12-18T04:40:13;38.28;;;15.60;;
58015;SDS011;43809;52.110;20.964;2022-12-18T04:42:13;37.65;;;15.63;;
58015;SDS011;43809;52.110;20.964;2022-12-18T04:44:13;40.35;;;16.98;;
58015;SDS011;43809;52.110;20.964;2022-12-18T04:46:13;41.15;;;16.38;;
58015;SDS011;43809;52.110;20.964;2022-12-18T04:48:14;34.63;;;15.63;;
58015;SDS011;43809;52.110;20.964;2022-12-18T04:50:14;36.88;;;15.73;;
58015;SDS011;43809;52.110;20.964;2022-12-18T04:52:14;37.80;;;16.70;;
58015;SDS011;43809;52.110;20.964;2022-12-18T04:54:14;44.25;;;17.02;;
58015;SDS011;43809;52.110;20.964;2022-12-18T04:56:15;39.58;;;16.65;;
58015;SDS011;43809;52.110;20.964;2022-12-18T04:58:15;37.90;;;16.02;;
58015;SDS011;43809;52.110;20.964;2022-12-18T05:00:15;40.67;;;17.50;;
58015;SDS011;43809;52.110;20.964;2022-12-18T05:02:16;35.95;;;15.63;;
58015;SDS011;43809;52.110;20.964;2022-12-18T05:04:16;39.03;;;15.77;;
58015;SDS011;43809;52.110;20.964;2022-12-18T05:06:16;35.92;;;14.48;;
58015;SDS011;43809;52.110;20.964;2022-12-18T05:08:16;35.00;;;14.75;;
58015;SDS011;43809;52.110;20.964;2022-12-18T05:10:16;36.50;;;14.55;;
58015;SDS011;43809;52.110;20.964;2022-12-18T05:12:17;35.13;;;15.45;;
58015;SDS011;43809;52.110;20.964;2022-12-18T05:14:17;34.47;;;14.40;;
58015;SDS011;43809;52.110;20.964;2022-12-18T05:16:17;34.17;;;14.43;;
58015;SDS011;43809;52.110;20.964;2022-12-18T05:18:17;34.75;;;14.90;;
58015;SDS011;43809;52.110;20.964;2022-12-18T05:20:18;35.90;;;14.98;;
58015;SDS011;43809;52.110;20.964;2022-12-18T05:22:18;33.20;;;14.02;;
58015;SDS011;43809;52.110;20.964;2022-12-18T05:24:18;33.03;;;13.77;;
58015;SDS011;43809;52.110;20.964;2022-12-18T05:26:18;33.53;;;14.52;;
58015;SDS011;43809;52.110;20.964;2022-12-18T05:28:19;35.50;;;14.00;;
58015;SDS011;43809;52.110;20.964;2022-12-18T05:30:19;34.22;;;13.30;;
58015;SDS011;43809;52.110;20.964;2022-12-18T05:32:19;32.60;;;14.73;;
58015;SDS011;43809;52.110;20.964;2022-12-18T05:34:19;40.35;;;15.65;;
58015;SDS011;43809;52.110;20.964;2022-12-18T05:36:20;70.63;;;24.35;;
58015;SDS011;43809;52.110;20.964;2022-12-18T05:38:20;128.27;;;39.38;;
58015;SDS011;43809;52.110;20.964;2022-12-18T05:40:20;160.13;;;46.28;;
58015;SDS011;43809;52.110;20.964;2022-12-18T05:42:20;403.10;;;95.13;;
58015;SDS011;43809;52.110;20.964;2022-12-18T05:44:21;285.20;;;72.13;;
58015;SDS011;43809;52.110;20.964;2022-12-18T05:46:23;164.15;;;44.65;;
58015;SDS011;43809;52.110;20.964;2022-12-18T05:48:24;97.78;;;29.38;;
58015;SDS011;43809;52.110;20.964;2022-12-18T05:50:24;75.13;;;24.25;;
58015;SDS011;43809;52.110;20.964;2022-12-18T05:52:25;48.72;;;18.60;;
58015;SDS011;43809;52.110;20.964;2022-12-18T05:54:26;46.63;;;17.42;;
58015;SDS011;43809;52.110;20.964;2022-12-18T05:56:27;41.95;;;15.85;;
58015;SDS011;43809;52.110;20.964;2022-12-18T05:58:27;49.72;;;20.20;;
58015;SDS011;43809;52.110;20.964;2022-12-18T06:00:28;70.43;;;24.95;;
58015;SDS011;43809;52.110;20.964;2022-12-18T06:02:28;102.93;;;35.35;;
58015;SDS011;43809;52.110;20.964;2022-12-18T06:04:28;96.40;;;33.33;;
58015;SDS011;43809;52.110;20.964;2022-12-18T06:06:28;81.68;;;27.90;;
58015;SDS011;43809;52.110;20.964;2022-12-18T06:08:29;78.03;;;29.25;;
58015;SDS011;43809;52.110;20.964;2022-12-18T06:10:29;53.78;;;22.40;;
58015;SDS011;43809;52.110;20.964;2022-12-18T06:12:29;55.40;;;21.45;;
58015;SDS011;43809;52.110;20.964;2022-12-18T06:14:29;56.90;;;22.08;;
58015;SDS011;43809;52.110;20.964;2022-12-18T06:16:29;67.60;;;26.63;;
58015;SDS011;43809;52.110;20.964;2022-12-18T06:18:30;90.70;;;32.15;;
58015;SDS011;43809;52.110;20.964;2022-12-18T06:20:30;66.28;;;25.92;;
58015;SDS011;43809;52.110;20.964;2022-12-18T06:22:31;58.55;;;24.10;;
58015;SDS011;43809;52.110;20.964;2022-12-18T06:24:32;43.22;;;18.85;;
58015;SDS011;43809;52.110;20.964;2022-12-18T06:26:33;51.97;;;21.95;;
58015;SDS011;43809;52.110;20.964;2022-12-18T06:28:33;45.25;;;18.50;;
58015;SDS011;43809;52.110;20.964;2022-12-18T06:30:33;44.08;;;17.77;;
58015;SDS011;43809;52.110;20.964;2022-12-18T06:32:33;53.45;;;19.38;;
58015;SDS011;43809;52.110;20.964;2022-12-18T06:34:34;45.10;;;19.60;;
58015;SDS011;43809;52.110;20.964;2022-12-18T06:36:34;71.60;;;31.00;;
58015;SDS011;43809;52.110;20.964;2022-12-18T06:38:34;51.97;;;21.67;;
58015;SDS011;43809;52.110;20.964;2022-12-18T06:40:36;42.67;;;18.23;;
58015;SDS011;43809;52.110;20.964;2022-12-18T06:42:36;44.70;;;18.23;;
58015;SDS011;43809;52.110;20.964;2022-12-18T06:44:36;44.72;;;17.83;;
58015;SDS011;43809;52.110;20.964;2022-12-18T06:46:37;42.42;;;16.20;;
58015;SDS011;43809;52.110;20.964;2022-12-18T06:48:38;44.67;;;17.35;;
58015;SDS011;43809;52.110;20.964;2022-12-18T06:50:41;40.05;;;17.48;;
58015;SDS011;43809;52.110;20.964;2022-12-18T06:52:41;48.33;;;18.13;;
58015;SDS011;43809;52.110;20.964;2022-12-18T06:54:43;43.03;;;18.08;;
58015;SDS011;43809;52.110;20.964;2022-12-18T06:56:46;44.47;;;18.80;;
58015;SDS011;43809;52.110;20.964;2022-12-18T06:58:46;39.90;;;16.98;;
58015;SDS011;43809;52.110;20.964;2022-12-18T07:00:47;50.85;;;19.45;;
58015;SDS011;43809;52.110;20.964;2022-12-18T07:02:47;46.40;;;18.70;;
58015;SDS011;43809;52.110;20.964;2022-12-18T07:04:47;47.78;;;19.15;;
58015;SDS011;43809;52.110;20.964;2022-12-18T07:06:47;43.70;;;17.95;;
58015;SDS011;43809;52.110;20.964;2022-12-18T07:08:48;45.33;;;16.90;;
58015;SDS011;43809;52.110;20.964;2022-12-18T07:10:48;44.72;;;18.02;;
58015;SDS011;43809;52.110;20.964;2022-12-18T07:12:52;42.80;;;18.42;;
58015;SDS011;43809;52.110;20.964;2022-12-18T07:14:53;50.25;;;21.77;;
58015;SDS011;43809;52.110;20.964;2022-12-18T07:16:53;44.13;;;18.20;;
58015;SDS011;43809;52.110;20.964;2022-12-18T07:18:54;49.63;;;21.15;;
58015;SDS011;43809;52.110;20.964;2022-12-18T07:20:54;53.20;;;21.88;;
58015;SDS011;43809;52.110;20.964;2022-12-18T07:22:54;53.22;;;21.35;;
58015;SDS011;43809;52.110;20.964;2022-12-18T07:24:54;49.83;;;20.27;;
58015;SDS011;43809;52.110;20.964;2022-12-18T07:26:55;46.15;;;17.73;;
58015;SDS011;43809;52.110;20.964;2022-12-18T07:28:55;41.85;;;18.15;;
58015;SDS011;43809;52.110;20.964;2022-12-18T07:30:57;48.95;;;20.13;;
58015;SDS011;43809;52.110;20.964;2022-12-18T07:32:57;37.85;;;17.48;;
58015;SDS011;43809;52.110;20.964;2022-12-18T07:34:57;40.30;;;15.60;;
58015;SDS011;43809;52.110;20.964;2022-12-18T07:36:57;37.88;;;16.60;;
58015;SDS011;43809;52.110;20.964;2022-12-18T07:38:57;41.22;;;16.38;;
58015;SDS011;43809;52.110;20.964;2022-12-18T07:41:01;45.88;;;17.98;;
58015;SDS011;43809;52.110;20.964;2022-12-18T07:43:02;50.22;;;18.65;;
58015;SDS011;43809;52.110;20.964;2022-12-18T07:45:02;46.40;;;19.30;;
58015;SDS011;43809;52.110;20.964;2022-12-18T07:47:03;44.90;;;18.15;;
58015;SDS011;43809;52.110;20.964;2022-12-18T07:49:03;48.10;;;19.23;;
58015;SDS011;43809;52.110;20.964;2022-12-18T07:51:04;43.92;;;18.40;;
58015;SDS011;43809;52.110;20.964;2022-12-18T07:53:05;49.20;;;19.23;;
58015;SDS011;43809;52.110;20.964;2022-12-18T07:55:05;49.83;;;19.08;;
58015;SDS011;43809;52.110;20.964;2022-12-18T07:57:05;45.58;;;19.38;;
58015;SDS011;43809;52.110;20.964;2022-12-18T07:59:06;47.30;;;18.80;;
58015;SDS011;43809;52.110;20.964;2022-12-18T08:01:07;44.38;;;18.08;;
58015;SDS011;43809;52.110;20.964;2022-12-18T08:03:18;47.47;;;17.95;;
58015;SDS011;43809;52.110;20.964;2022-12-18T08:05:18;43.63;;;18.42;;
58015;SDS011;43809;52.110;20.964;2022-12-18T08:07:20;41.30;;;18.10;;
58015;SDS011;43809;52.110;20.964;2022-12-18T08:09:20;44.00;;;17.90;;
58015;SDS011;43809;52.110;20.964;2022-12-18T08:11:21;48.97;;;18.83;;
58015;SDS011;43809;52.110;20.964;2022-12-18T08:13:21;46.05;;;18.38;;
58015;SDS011;43809;52.110;20.964;2022-12-18T08:15:21;49.53;;;19.73;;
58015;SDS011;43809;52.110;20.964;2022-12-18T08:17:22;46.25;;;19.20;;
58015;SDS011;43809;52.110;20.964;2022-12-18T08:19:22;47.67;;;18.75;;
58015;SDS011;43809;52.110;20.964;2022-12-18T08:21:24;49.10;;;20.13;;
58015;SDS011;43809;52.110;20.964;2022-12-18T08:23:24;48.78;;;20.48;;
58015;SDS011;43809;52.110;20.964;2022-12-18T08:25:27;46.03;;;20.40;;
58015;SDS011;43809;52.110;20.964;2022-12-18T08:27:30;48.05;;;20.15;;
58015;SDS011;43809;52.110;20.964;2022-12-18T08:29:33;53.25;;;21.92;;
58015;SDS011;43809;52.110;20.964;2022-12-18T08:31:33;47.50;;;20.35;;
58015;SDS011;43809;52.110;20.964;2022-12-18T08:33:34;47.47;;;19.75;;
58015;SDS011;43809;52.110;20.964;2022-12-18T08:35:35;53.25;;;21.83;;
58015;SDS011;43809;52.110;20.964;2022-12-18T08:37:36;50.25;;;19.60;;
58015;SDS011;43809;52.110;20.964;2022-12-18T08:39:36;49.00;;;19.88;;
58015;SDS011;43809;52.110;20.964;2022-12-18T08:41:38;48.20;;;19.67;;
58015;SDS011;43809;52.110;20.964;2022-12-18T08:43:38;49.00;;;18.75;;
58015;SDS011;43809;52.110;20.964;2022-12-18T08:45:57;45.05;;;17.98;;
58015;SDS011;43809;52.110;20.964;2022-12-18T08:47:57;43.30;;;19.43;;
58015;SDS011;43809;52.110;20.964;2022-12-18T08:49:58;52.05;;;21.17;;
58015;SDS011;43809;52.110;20.964;2022-12-18T08:51:58;43.10;;;19.20;;
58015;SDS011;43809;52.110;20.964;2022-12-18T08:53:58;39.95;;;18.17;;
58015;SDS011;43809;52.110;20.964;2022-12-18T08:55:58;47.25;;;20.55;;
58015;SDS011;43809;52.110;20.964;2022-12-18T08:57:59;43.72;;;19.73;;
58015;SDS011;43809;52.110;20.964;2022-12-18T08:59:59;44.88;;;20.48;;
58015;SDS011;43809;52.110;20.964;2022-12-18T09:01:59;58.00;;;22.27;;
58015;SDS011;43809;52.110;20.964;2022-12-18T09:04:00;46.03;;;19.88;;
58015;SDS011;43809;52.110;20.964;2022-12-18T09:06:01;52.10;;;22.73;;
58015;SDS011;43809;52.110;20.964;2022-12-18T09:08:01;49.10;;;21.45;;
58015;SDS011;43809;52.110;20.964;2022-12-18T09:10:01;43.45;;;18.85;;
58015;SDS011;43809;52.110;20.964;2022-12-18T09:12:01;44.78;;;19.80;;
58015;SDS011;43809;52.110;20.964;2022-12-18T09:14:01;49.38;;;21.23;;
58015;SDS011;43809;52.110;20.964;2022-12-18T09:16:02;47.00;;;20.73;;
58015;SDS011;43809;52.110;20.964;2022-12-18T09:18:03;52.78;;;21.13;;
58015;SDS011;43809;52.110;20.964;2022-12-18T09:20:03;51.38;;;21.50;;
58015;SDS011;43809;52.110;20.964;2022-12-18T09:22:03;45.30;;;19.58;;
58015;SDS011;43809;52.110;20.964;2022-12-18T09:24:04;50.85;;;22.17;;
58015;SDS011;43809;52.110;20.964;2022-12-18T09:26:04;55.85;;;22.55;;
58015;SDS011;43809;52.110;20.964;2022-12-18T09:28:06;56.38;;;23.35;;
58015;SDS011;43809;52.110;20.964;2022-12-18T09:30:06;55.20;;;24.30;;
58015;SDS011;43809;52.110;20.964;2022-12-18T09:32:07;55.70;;;21.95;;
58015;SDS011;43809;52.110;20.964;2022-12-18T09:34:07;52.25;;;23.10;;
58015;SDS011;43809;52.110;20.964;2022-12-18T09:36:08;50.13;;;21.15;;
58015;SDS011;43809;52.110;20.964;2022-12-18T09:38:11;57.00;;;23.30;;
58015;SDS011;43809;52.110;20.964;2022-12-18T09:40:16;48.85;;;21.17;;
58015;SDS011;43809;52.110;20.964;2022-12-18T09:42:19;50.88;;;20.95;;
58015;SDS011;43809;52.110;20.964;2022-12-18T09:44:27;51.10;;;22.48;;
58015;SDS011;43809;52.110;20.964;2022-12-18T09:46:32;56.20;;;23.08;;
58015;SDS011;43809;52.110;20.964;2022-12-18T09:48:36;49.90;;;20.75;;
58015;SDS011;43809;52.110;20.964;2022-12-18T09:50:38;52.80;;;22.23;;
58015;SDS011;43809;52.110;20.964;2022-12-18T09:52:39;49.50;;;22.00;;
58015;SDS011;43809;52.110;20.964;2022-12-18T09:54:42;55.50;;;22.65;;
58015;SDS011;43809;52.110;20.964;2022-12-18T09:56:43;51.60;;;22.02;;
58015;SDS011;43809;52.110;20.964;2022-12-18T09:58:53;56.22;;;22.50;;
58015;SDS011;43809;52.110;20.964;2022-12-18T10:00:55;49.53;;;21.55;;
58015;SDS011;43809;52.110;20.964;2022-12-18T10:03:28;51.58;;;21.77;;
58015;SDS011;43809;52.110;20.964;2022-12-18T10:07:31;42.10;;;18.42;;
58015;SDS011;43809;52.110;20.964;2022-12-18T10:09:37;48.92;;;22.17;;
58015;SDS011;43809;52.110;20.964;2022-12-18T10:11:47;59.38;;;24.17;;
58015;SDS011;43809;52.110;20.964;2022-12-18T10:13:52;54.20;;;21.98;;
58015;SDS011;43809;52.110;20.964;2022-12-18T10:15:55;52.15;;;20.90;;
58015;SDS011;43809;52.110;20.964;2022-12-18T10:18:03;51.28;;;20.75;;
58015;SDS011;43809;52.110;20.964;2022-12-18T10:20:13;46.13;;;20.52;;
58015;SDS011;43809;52.110;20.964;2022-12-18T10:22:19;51.28;;;20.30;;
58015;SDS011;43809;52.110;20.964;2022-12-18T10:26:22;50.03;;;17.33;;
58015;SDS011;43809;52.110;20.964;2022-12-18T10:28:23;44.92;;;18.02;;
58015;SDS011;43809;52.110;20.964;2022-12-18T10:30:24;45.88;;;17.40;;
58015;SDS011;43809;52.110;20.964;2022-12-18T10:32:25;47.00;;;17.65;;
58015;SDS011;43809;52.110;20.964;2022-12-18T10:34:26;41.90;;;16.13;;
58015;SDS011;43809;52.110;20.964;2022-12-18T10:36:26;37.13;;;15.47;;
58015;SDS011;43809;52.110;20.964;2022-12-18T10:38:27;45.38;;;17.17;;
58015;SDS011;43809;52.110;20.964;2022-12-18T10:40:28;45.03;;;16.83;;
58015;SDS011;43809;52.110;20.964;2022-12-18T10:42:28;42.58;;;16.55;;
58015;SDS011;43809;52.110;20.964;2022-12-18T10:44:28;52.55;;;19.67;;
58015;SDS011;43809;52.110;20.964;2022-12-18T10:46:29;49.30;;;17.83;;
58015;SDS011;43809;52.110;20.964;2022-12-18T10:48:29;36.00;;;14.18;;
58015;SDS011;43809;52.110;20.964;2022-12-18T10:50:39;43.72;;;16.35;;
58015;SDS011;43809;52.110;20.964;2022-12-18T10:52:39;37.97;;;14.30;;
58015;SDS011;43809;52.110;20.964;2022-12-18T10:54:39;38.70;;;14.95;;
58015;SDS011;43809;52.110;20.964;2022-12-18T10:56:40;43.40;;;16.60;;
58015;SDS011;43809;52.110;20.964;2022-12-18T10:58:40;46.55;;;17.52;;
58015;SDS011;43809;52.110;20.964;2022-12-18T11:00:40;40.67;;;15.13;;
58015;SDS011;43809;52.110;20.964;2022-12-18T11:02:41;40.15;;;16.75;;
58015;SDS011;43809;52.110;20.964;2022-12-18T11:04:49;39.67;;;14.93;;
58015;SDS011;43809;52.110;20.964;2022-12-18T11:06:52;39.88;;;16.23;;
58015;SDS011;43809;52.110;20.964;2022-12-18T11:11:06;41.38;;;17.38;;
58015;SDS011;43809;52.110;20.964;2022-12-18T11:13:11;48.30;;;19.52;;
58015;SDS011;43809;52.110;20.964;2022-12-18T11:15:19;38.40;;;16.30;;
58015;SDS011;43809;52.110;20.964;2022-12-18T11:17:32;33.92;;;13.20;;
58015;SDS011;43809;52.110;20.964;2022-12-18T11:19:36;34.53;;;14.13;;
58015;SDS011;43809;52.110;20.964;2022-12-18T11:21:40;35.33;;;14.48;;
58015;SDS011;43809;52.110;20.964;2022-12-18T11:23:52;36.25;;;13.32;;
58015;SDS011;43809;52.110;20.964;2022-12-18T11:25:57;34.83;;;14.25;;
58015;SDS011;43809;52.110;20.964;2022-12-18T11:27:58;33.65;;;13.45;;
58015;SDS011;43809;52.110;20.964;2022-12-18T11:30:09;31.65;;;12.02;;
58015;SDS011;43809;52.110;20.964;2022-12-18T11:34:19;32.20;;;12.18;;
58015;SDS011;43809;52.110;20.964;2022-12-18T11:36:22;39.72;;;14.80;;
58015;SDS011;43809;52.110;20.964;2022-12-18T11:38:24;38.70;;;15.25;;
58015;SDS011;43809;52.110;20.964;2022-12-18T11:40:33;40.58;;;15.43;;
58015;SDS011;43809;52.110;20.964;2022-12-18T11:42:52;33.28;;;13.00;;
58015;SDS011;43809;52.110;20.964;2022-12-18T11:44:57;31.88;;;12.35;;
58015;SDS011;43809;52.110;20.964;2022-12-18T11:47:03;30.55;;;12.82;;
58015;SDS011;43809;52.110;20.964;2022-12-18T11:49:21;32.80;;;13.43;;
58015;SDS011;43809;52.110;20.964;2022-12-18T11:51:25;34.95;;;12.75;;
58015;SDS011;43809;52.110;20.964;2022-12-18T11:53:27;38.90;;;15.45;;
58015;SDS011;43809;52.110;20.964;2022-12-18T11:57:54;31.35;;;12.85;;
58015;SDS011;43809;52.110;20.964;2022-12-18T12:00:12;26.88;;;11.90;;
58015;SDS011;43809;52.110;20.964;2022-12-18T12:02:36;30.80;;;11.48;;
58015;SDS011;43809;52.110;20.964;2022-12-18T12:15:54;30.35;;;12.23;;
58015;SDS011;43809;52.110;20.964;2022-12-18T12:17:58;28.55;;;11.25;;
58015;SDS011;43809;52.110;20.964;2022-12-18T12:24:25;23.33;;;9.98;;
58015;SDS011;43809;52.110;20.964;2022-12-18T12:27:32;26.45;;;9.63;;
58015;SDS011;43809;52.110;20.964;2022-12-18T12:29:10;29.30;;;11.40;;
58015;SDS011;43809;52.110;20.964;2022-12-18T12:33:29;35.55;;;12.23;;
58015;SDS011;43809;52.110;20.964;2022-12-18T12:35:37;34.28;;;12.82;;
58015;SDS011;43809;52.110;20.964;2022-12-18T12:40:05;33.72;;;13.45;;